createdAt,value
2023-05-05T00:01:06.518Z,4.80
2023-05-05T00:03:34.262Z,4.90
2023-05-05T00:06:00.762Z,3.97
2023-05-05T00:08:27.867Z,3.35
2023-05-05T00:10:54.479Z,4.20
2023-05-05T00:13:21.176Z,3.90
2023-05-05T00:15:48.836Z,3.88
2023-05-05T00:18:16.522Z,4.25
2023-05-05T00:20:43.495Z,3.60
2023-05-05T00:23:10.058Z,4.18
2023-05-05T00:25:36.481Z,3.85
2023-05-05T00:28:02.914Z,3.20
2023-05-05T00:30:29.783Z,3.30
2023-05-05T00:32:57.220Z,4.00
2023-05-05T00:35:23.736Z,4.25
2023-05-05T00:37:50.235Z,3.22
2023-05-05T00:40:18.415Z,3.67
2023-05-05T00:42:45.920Z,3.88
2023-05-05T00:45:13.842Z,3.72
2023-05-05T00:47:41.898Z,3.67
2023-05-05T00:50:12.128Z,4.03
2023-05-05T00:52:39.050Z,4.07
2023-05-05T00:55:06.065Z,4.07
2023-05-05T00:57:33.065Z,3.80
2023-05-05T01:00:00.004Z,3.53
2023-05-05T01:02:26.590Z,4.05
2023-05-05T01:04:53.479Z,3.88
2023-05-05T01:07:19.861Z,4.72
2023-05-05T01:10:00.877Z,3.80
2023-05-05T01:12:43.803Z,3.85
2023-05-05T01:15:17.570Z,4.60
2023-05-05T01:17:52.449Z,4.90
2023-05-05T01:20:39.126Z,5.18
2023-05-05T01:23:06.806Z,4.43
2023-05-05T01:25:52.247Z,4.85
2023-05-05T01:28:18.619Z,4.40
2023-05-05T01:31:09.452Z,4.38
2023-05-05T01:33:38.227Z,3.95
2023-05-05T01:36:09.874Z,4.57
2023-05-05T01:38:41.009Z,4.45
2023-05-05T01:41:16.073Z,5.82
2023-05-05T01:43:45.741Z,4.47
2023-05-05T01:46:12.814Z,4.10
2023-05-05T01:48:41.798Z,4.57
2023-05-05T01:51:09.502Z,4.38
2023-05-05T01:53:36.586Z,4.70
2023-05-05T01:56:03.739Z,5.40
2023-05-05T01:58:30.949Z,4.88
2023-05-05T02:00:57.579Z,4.18
2023-05-05T02:03:24.716Z,4.78
2023-05-05T02:05:52.022Z,4.40
2023-05-05T02:08:19.151Z,4.30
2023-05-05T02:10:47.708Z,4.10
2023-05-05T02:13:15.590Z,4.13
2023-05-05T02:15:43.322Z,3.40
2023-05-05T02:18:10.358Z,3.78
2023-05-05T02:20:40.300Z,4.72
2023-05-05T02:23:08.045Z,4.95
2023-05-05T02:25:45.812Z,4.38
2023-05-05T02:28:18.363Z,4.10
2023-05-05T02:30:46.226Z,3.90
2023-05-05T02:33:17.121Z,3.58
2023-05-05T02:35:45.679Z,3.70
2023-05-05T02:38:17.689Z,3.60
2023-05-05T02:40:48.204Z,3.90
2023-05-05T02:43:18.062Z,3.55
2023-05-05T02:45:46.511Z,3.70
2023-05-05T02:48:14.237Z,3.55
2023-05-05T02:50:40.843Z,3.92
2023-05-05T02:53:24.500Z,3.45
2023-05-05T02:55:52.926Z,3.42
2023-05-05T02:58:30.915Z,3.45
2023-05-05T03:01:06.047Z,4.25
2023-05-05T03:03:39.823Z,4.03
2023-05-05T03:06:13.946Z,4.10
2023-05-05T03:08:44.226Z,3.88
2023-05-05T03:11:16.605Z,3.40
2023-05-05T03:13:44.030Z,4.00
2023-05-05T03:16:17.093Z,3.70
2023-05-05T03:18:45.504Z,3.35
2023-05-05T03:21:12.241Z,3.85
2023-05-05T03:23:41.563Z,3.45
2023-05-05T03:26:17.054Z,4.15
2023-05-05T03:28:43.575Z,3.55
2023-05-05T03:31:18.064Z,3.80
2023-05-05T03:33:48.787Z,4.35
2023-05-05T03:36:15.532Z,3.17
2023-05-05T03:38:41.997Z,3.42
2023-05-05T03:41:09.081Z,3.30
2023-05-05T03:43:35.653Z,3.40
2023-05-05T03:46:02.279Z,3.60
2023-05-05T03:48:29.100Z,3.75
2023-05-05T03:50:55.665Z,4.03
2023-05-05T03:53:24.144Z,3.80
2023-05-05T03:55:50.834Z,4.00
2023-05-05T03:58:17.285Z,4.47
2023-05-05T04:00:44.214Z,4.03
2023-05-05T04:03:11.631Z,3.67
2023-05-05T04:05:38.550Z,3.20
2023-05-05T04:08:05.677Z,4.15
2023-05-05T04:10:34.665Z,3.80
2023-05-05T04:13:02.663Z,3.83
2023-05-05T04:15:30.923Z,3.38
2023-05-05T04:17:57.558Z,3.67
2023-05-05T04:20:24.820Z,3.60
2023-05-05T04:22:52.773Z,3.58
2023-05-05T04:25:20.565Z,3.92
2023-05-05T04:27:48.655Z,3.60
2023-05-05T04:30:15.655Z,2.95
2023-05-05T04:32:43.422Z,3.90
2023-05-05T04:35:10.775Z,3.90
2023-05-05T04:37:37.628Z,2.88
2023-05-05T04:40:05.941Z,3.05
2023-05-05T04:42:34.200Z,3.58
2023-05-05T04:45:01.875Z,3.25
2023-05-05T04:47:29.245Z,2.88
2023-05-05T04:49:56.071Z,2.63
2023-05-05T04:52:22.794Z,3.00
2023-05-05T04:54:49.411Z,3.17
2023-05-05T04:57:15.960Z,2.90
2023-05-05T04:59:42.492Z,2.95
2023-05-05T05:02:09.012Z,2.70
2023-05-05T05:04:35.560Z,4.00
2023-05-05T05:07:02.037Z,3.75
2023-05-05T05:09:28.560Z,3.20
2023-05-05T05:11:58.797Z,2.85
2023-05-05T05:14:25.628Z,2.95
2023-05-05T05:16:52.693Z,2.40
2023-05-05T05:19:21.705Z,2.90
2023-05-05T05:21:48.467Z,3.22
2023-05-05T05:24:15.124Z,2.90
2023-05-05T05:26:43.182Z,2.65
2023-05-05T05:29:09.864Z,3.30
2023-05-05T05:31:36.895Z,2.70
2023-05-05T05:34:03.537Z,2.55
2023-05-05T05:36:30.042Z,2.80
2023-05-05T05:38:57.116Z,2.63
2023-05-05T05:41:23.745Z,3.42
2023-05-05T05:43:50.329Z,4.10
2023-05-05T05:46:17.233Z,2.90
2023-05-05T05:48:44.216Z,2.78
2023-05-05T05:51:10.731Z,3.08
2023-05-05T05:53:37.449Z,3.00
2023-05-05T05:56:04.194Z,3.40
2023-05-05T05:58:31.023Z,4.05
2023-05-05T06:00:59.827Z,4.20
2023-05-05T06:03:27.313Z,2.97
2023-05-05T06:05:54.032Z,3.90
2023-05-05T06:08:22.030Z,4.25
2023-05-05T06:10:52.904Z,3.75
2023-05-05T06:13:21.428Z,5.47
2023-05-05T06:15:50.377Z,3.78
2023-05-05T06:18:17.639Z,4.07
2023-05-05T06:20:44.309Z,4.50
2023-05-05T06:23:12.758Z,4.25
2023-05-05T06:25:43.710Z,5.40
2023-05-05T06:28:10.129Z,5.75
2023-05-05T06:30:36.684Z,5.68
2023-05-05T06:33:03.271Z,5.22
2023-05-05T06:35:30.405Z,5.95
2023-05-05T06:37:56.870Z,5.55
2023-05-05T06:40:23.400Z,3.95
2023-05-05T06:42:49.881Z,6.07
2023-05-05T06:45:21.804Z,5.22
2023-05-05T06:47:49.156Z,5.10
2023-05-05T06:52:42.615Z,4.90
2023-05-05T06:55:09.740Z,4.28
2023-05-05T06:57:36.252Z,5.50
2023-05-05T07:00:05.849Z,4.75
2023-05-05T07:02:33.672Z,4.50
2023-05-05T07:05:00.272Z,4.65
2023-05-05T07:07:27.056Z,4.40
2023-05-05T07:09:53.718Z,5.35
2023-05-05T07:12:20.163Z,4.88
2023-05-05T07:14:46.777Z,4.85
2023-05-05T07:17:13.314Z,4.68
2023-05-05T07:19:39.884Z,4.32
2023-05-05T07:22:06.607Z,4.75
2023-05-05T07:24:33.100Z,3.78
2023-05-05T07:26:59.690Z,3.72
2023-05-05T07:29:26.193Z,3.58
2023-05-05T07:31:52.735Z,3.65
2023-05-05T07:34:19.218Z,4.55
2023-05-05T07:36:45.851Z,4.75
2023-05-05T07:39:15.009Z,3.85
2023-05-05T07:41:42.341Z,3.83
2023-05-05T07:44:08.800Z,4.47
2023-05-05T07:46:44.962Z,4.70
2023-05-05T07:49:11.483Z,4.03
2023-05-05T07:51:37.931Z,3.70
2023-05-05T07:54:04.547Z,4.38
2023-05-05T07:56:31.324Z,3.47
2023-05-05T07:58:57.831Z,4.40
2023-05-05T08:01:24.409Z,4.93
2023-05-05T08:03:51.330Z,3.80
2023-05-05T08:06:22.320Z,3.88
2023-05-05T08:08:49.199Z,3.92
2023-05-05T08:11:16.182Z,3.65
2023-05-05T08:13:43.261Z,4.80
2023-05-05T08:16:10.083Z,5.43
2023-05-05T08:18:37.705Z,3.88
2023-05-05T08:21:05.299Z,5.45
2023-05-05T08:23:32.145Z,5.70
2023-05-05T08:25:58.610Z,4.53
2023-05-05T08:28:25.158Z,3.90
2023-05-05T08:30:51.600Z,4.40
2023-05-05T08:33:18.342Z,2.70
2023-05-05T08:35:44.932Z,2.50
2023-05-05T08:38:11.944Z,3.78
2023-05-05T08:40:39.466Z,4.50
2023-05-05T08:43:06.113Z,4.90
2023-05-05T08:45:32.770Z,5.60
2023-05-05T08:48:03.246Z,3.72
2023-05-05T08:50:30.413Z,3.63
2023-05-05T08:53:17.678Z,3.17
2023-05-05T08:55:50.121Z,2.45
2023-05-05T08:58:18.306Z,2.85
2023-05-05T09:00:45.842Z,2.85
2023-05-05T09:03:12.729Z,2.80
2023-05-05T09:05:39.505Z,2.55
2023-05-05T09:08:08.154Z,2.33
2023-05-05T09:10:35.576Z,1.83
2023-05-05T09:15:28.566Z,1.85
2023-05-05T09:17:57.572Z,5.60
2023-05-05T09:20:24.607Z,3.70
2023-05-05T09:22:51.282Z,4.93
2023-05-05T09:25:18.266Z,5.97
2023-05-05T09:27:46.210Z,5.45
2023-05-05T09:30:14.954Z,5.20
2023-05-05T09:32:44.218Z,4.30
2023-05-05T09:35:10.666Z,4.75
2023-05-05T09:37:38.636Z,3.88
2023-05-05T09:40:06.036Z,4.00
2023-05-05T09:45:00.069Z,3.38
2023-05-05T09:47:36.991Z,2.75
2023-05-05T09:50:04.209Z,3.13
2023-05-05T09:52:32.075Z,3.50
2023-05-05T09:54:58.669Z,4.10
2023-05-05T09:57:26.768Z,5.13
2023-05-05T09:59:57.484Z,5.80
2023-05-05T10:02:50.112Z,4.85
2023-05-05T10:05:17.639Z,5.72
2023-05-05T10:07:45.092Z,4.32
2023-05-05T10:12:38.579Z,5.57
2023-05-05T10:15:06.273Z,5.40
2023-05-05T10:17:35.655Z,3.47
2023-05-05T10:20:03.896Z,2.70
2023-05-05T10:22:34.557Z,2.45
2023-05-05T10:25:09.324Z,2.05
2023-05-05T10:27:50.590Z,1.90
2023-05-05T10:30:19.803Z,2.00
2023-05-05T10:33:17.330Z,2.20
2023-05-05T10:35:49.840Z,1.90
2023-05-05T10:38:16.400Z,1.80
2023-05-05T10:40:44.226Z,1.90
2023-05-05T10:43:11.054Z,1.50
2023-05-05T10:45:37.915Z,1.52
2023-05-05T10:48:06.666Z,1.80
2023-05-05T10:50:36.625Z,1.70
2023-05-05T10:53:08.037Z,1.75
2023-05-05T10:55:39.790Z,2.78
2023-05-05T10:58:06.272Z,1.67
2023-05-05T11:00:38.566Z,1.65
2023-05-05T11:03:25.628Z,2.78
2023-05-05T11:06:07.068Z,2.25
2023-05-05T11:08:34.417Z,3.13
2023-05-05T11:11:01.792Z,2.35
2023-05-05T11:15:55.534Z,2.42
2023-05-05T11:20:48.343Z,2.72
2023-05-05T11:23:20.691Z,3.08
2023-05-05T11:25:48.026Z,2.92
2023-05-05T11:28:17.377Z,2.92
2023-05-05T11:30:56.406Z,3.20
2023-05-05T11:33:24.896Z,4.85
2023-05-05T11:35:55.161Z,3.00
2023-05-05T11:38:26.735Z,3.20
2023-05-05T11:40:57.541Z,3.20
2023-05-05T11:43:24.101Z,3.05
2023-05-05T11:46:09.195Z,3.28
2023-05-05T11:48:43.751Z,2.80
2023-05-05T11:51:17.089Z,2.60
2023-05-05T11:56:20.142Z,2.90
2023-05-05T11:58:47.122Z,2.80
2023-05-05T12:01:13.932Z,3.00
2023-05-05T12:03:40.652Z,2.90
2023-05-05T12:06:08.044Z,3.03
2023-05-05T12:08:38.010Z,2.72
2023-05-05T12:11:07.978Z,2.80
2023-05-05T12:13:37.035Z,2.78
2023-05-05T12:16:13.585Z,2.72
2023-05-05T12:18:40.900Z,2.78
2023-05-05T12:21:17.215Z,2.72
2023-05-05T12:23:43.731Z,2.55
2023-05-05T12:26:29.261Z,2.70
2023-05-05T12:28:56.498Z,2.70
2023-05-05T12:31:23.567Z,2.67
2023-05-05T12:33:50.338Z,2.53
2023-05-05T12:36:17.028Z,2.55
2023-05-05T12:38:43.657Z,2.58
2023-05-05T12:41:10.096Z,2.40
2023-05-05T12:43:36.858Z,2.50
2023-05-05T12:46:08.234Z,2.55
2023-05-05T12:48:35.764Z,2.00
2023-05-05T12:51:11.545Z,2.50
2023-05-05T12:53:38.243Z,2.28
2023-05-05T12:56:04.827Z,2.35
2023-05-05T12:58:48.560Z,1.92
2023-05-05T13:01:15.078Z,2.08
2023-05-05T13:03:41.834Z,2.30
2023-05-05T13:06:21.093Z,2.10
2023-05-05T13:08:48.118Z,2.35
2023-05-05T13:11:14.556Z,2.03
2023-05-05T13:13:42.134Z,2.10
2023-05-05T13:16:08.680Z,2.30
2023-05-05T13:18:45.232Z,2.30
2023-05-05T13:21:11.895Z,2.15
2023-05-05T13:23:38.412Z,2.35
2023-05-05T13:26:05.119Z,2.17
2023-05-05T13:28:31.655Z,2.20
2023-05-05T13:30:58.745Z,2.30
2023-05-05T13:33:25.372Z,2.10
2023-05-05T13:35:52.276Z,2.45
2023-05-05T13:38:18.825Z,2.40
2023-05-05T13:40:45.290Z,2.40
2023-05-05T13:43:12.008Z,2.10
2023-05-05T13:45:40.549Z,1.80
2023-05-05T13:48:08.708Z,2.35
2023-05-05T13:50:35.194Z,2.00
2023-05-05T13:53:01.698Z,2.35
2023-05-05T13:55:28.450Z,1.92
2023-05-05T13:57:54.928Z,2.00
2023-05-05T14:00:21.521Z,2.10
2023-05-05T14:02:48.238Z,2.30
2023-05-05T14:05:16.515Z,2.40
2023-05-05T14:07:43.029Z,2.20
2023-05-05T14:10:09.738Z,1.73
2023-05-05T14:12:36.585Z,1.85
2023-05-05T14:15:03.169Z,1.50
2023-05-05T14:17:29.640Z,1.67
2023-05-05T14:19:56.344Z,1.80
2023-05-05T14:22:22.817Z,1.80
2023-05-05T14:24:49.398Z,1.52
2023-05-05T14:27:16.059Z,1.35
2023-05-05T14:29:42.576Z,1.70
2023-05-05T14:32:09.166Z,1.90
2023-05-05T14:34:35.779Z,1.45
2023-05-05T14:37:02.264Z,1.60
2023-05-05T14:39:28.736Z,1.67
2023-05-05T14:41:55.215Z,1.65
2023-05-05T14:44:21.739Z,1.48
2023-05-05T14:46:49.758Z,1.70
2023-05-05T14:49:17.538Z,1.67
2023-05-05T14:51:44.153Z,1.60
2023-05-05T14:54:24.294Z,1.50
2023-05-05T14:56:54.187Z,1.60
2023-05-05T14:59:20.623Z,1.63
2023-05-05T15:01:48.206Z,1.50
2023-05-05T15:04:14.792Z,1.77
2023-05-05T15:06:41.292Z,1.65
2023-05-05T15:09:07.870Z,1.63
2023-05-05T15:11:34.356Z,1.63
2023-05-05T15:14:00.926Z,1.77
2023-05-05T15:16:27.557Z,1.70
2023-05-05T15:18:54.201Z,1.80
2023-05-05T15:21:20.911Z,1.65
2023-05-05T15:23:47.366Z,1.63
2023-05-05T15:26:13.874Z,1.67
2023-05-05T15:28:41.202Z,1.60
2023-05-05T15:31:07.642Z,1.65
2023-05-05T15:33:35.150Z,2.00
2023-05-05T15:36:02.144Z,1.70
2023-05-05T15:38:29.849Z,1.70
2023-05-05T15:40:56.454Z,1.42
2023-05-05T15:43:22.985Z,1.65
2023-05-05T15:45:49.497Z,1.60
2023-05-05T15:48:16.201Z,1.50
2023-05-05T15:50:42.797Z,1.60
2023-05-05T15:53:09.262Z,1.70
2023-05-05T15:55:35.903Z,1.50
2023-05-05T15:58:02.468Z,1.58
2023-05-05T16:00:29.217Z,1.52
2023-05-05T16:02:56.111Z,1.60
2023-05-05T16:05:23.085Z,1.80
2023-05-05T16:07:49.968Z,1.60
2023-05-05T16:10:18.227Z,1.60
2023-05-05T16:12:44.695Z,1.38
2023-05-05T16:15:11.647Z,1.50
2023-05-05T16:17:38.297Z,1.42
2023-05-05T16:20:05.206Z,1.33
2023-05-05T16:22:31.814Z,1.60
2023-05-05T16:24:58.369Z,1.50
2023-05-05T16:27:24.849Z,1.50
2023-05-05T16:29:51.382Z,1.50
2023-05-05T16:32:17.901Z,1.60
2023-05-05T16:34:44.483Z,1.20
2023-05-05T16:37:11.088Z,1.63
2023-05-05T16:39:40.273Z,1.30
2023-05-05T16:42:06.953Z,1.27
2023-05-05T16:44:33.371Z,1.50
2023-05-05T16:46:59.836Z,1.20
2023-05-05T16:49:26.342Z,1.23
2023-05-05T16:51:53.501Z,1.10
2023-05-05T16:54:19.976Z,1.20
2023-05-05T16:56:46.546Z,1.13
2023-05-05T16:59:15.194Z,1.13
2023-05-05T17:01:43.389Z,1.00
2023-05-05T17:04:10.957Z,1.10
2023-05-05T17:06:37.484Z,1.13
2023-05-05T17:09:04.102Z,1.00
2023-05-05T17:11:30.658Z,1.00
2023-05-05T17:13:57.767Z,1.10
2023-05-05T17:16:24.262Z,0.98
2023-05-05T17:18:51.047Z,1.05
2023-05-05T17:21:17.561Z,1.00
2023-05-05T17:23:44.067Z,0.80
2023-05-05T17:26:10.546Z,1.00
2023-05-05T17:28:37.484Z,1.20
2023-05-05T17:31:03.985Z,1.13
2023-05-05T17:33:30.503Z,1.08
2023-05-05T17:35:56.984Z,1.20
2023-05-05T17:38:23.384Z,1.40
2023-05-05T17:40:49.862Z,1.23
2023-05-05T17:43:16.675Z,1.40
2023-05-05T17:45:43.206Z,1.35
2023-05-05T17:48:09.791Z,1.42
2023-05-05T17:50:36.323Z,1.40
2023-05-05T17:53:03.531Z,1.30
2023-05-05T17:55:30.494Z,1.20
2023-05-05T17:57:58.870Z,1.30
2023-05-05T18:00:25.419Z,1.30
2023-05-05T18:02:52.138Z,1.30
2023-05-05T18:05:19.067Z,1.20
2023-05-05T18:07:45.619Z,1.40
2023-05-05T18:10:12.180Z,1.20
2023-05-05T18:12:38.794Z,1.25
2023-05-05T18:15:05.980Z,1.30
2023-05-05T18:17:32.584Z,1.00
2023-05-05T18:19:59.055Z,1.05
2023-05-05T18:22:25.512Z,1.20
2023-05-05T18:24:52.163Z,1.10
2023-05-05T18:27:18.713Z,1.30
2023-05-05T18:29:45.195Z,1.50
2023-05-05T18:32:12.102Z,1.40
2023-05-05T18:34:38.632Z,1.40
2023-05-05T18:37:05.110Z,1.20
2023-05-05T18:39:31.635Z,1.20
2023-05-05T18:41:58.280Z,1.20
2023-05-05T18:44:24.825Z,1.30
2023-05-05T18:46:51.512Z,1.20
2023-05-05T18:49:18.246Z,1.13
2023-05-05T18:51:44.729Z,1.40
2023-05-05T18:54:11.249Z,1.30
2023-05-05T18:56:37.705Z,1.30
2023-05-05T18:59:04.881Z,1.40
2023-05-05T19:01:31.353Z,1.23
2023-05-05T19:03:57.908Z,1.23
2023-05-05T19:06:24.419Z,1.15
2023-05-05T19:08:50.903Z,1.20
2023-05-05T19:11:17.329Z,1.33
2023-05-05T19:13:43.979Z,1.40
2023-05-05T19:16:11.370Z,1.10
2023-05-05T19:18:38.331Z,1.00
2023-05-05T19:21:04.873Z,1.05
2023-05-05T19:23:32.264Z,1.13
2023-05-05T19:25:58.805Z,1.30
2023-05-05T19:28:25.322Z,1.00
2023-05-05T19:30:52.104Z,1.15
2023-05-05T19:33:18.611Z,1.05
2023-05-05T19:35:45.139Z,1.50
2023-05-05T19:38:11.980Z,1.05
2023-05-05T19:40:39.047Z,1.00
2023-05-05T19:43:05.543Z,1.10
2023-05-05T19:45:32.254Z,1.20
2023-05-05T19:47:58.748Z,1.02
2023-05-05T19:50:26.723Z,0.95
2023-05-05T19:52:54.658Z,0.93
2023-05-05T19:55:22.051Z,1.02
2023-05-05T20:00:15.391Z,1.02
2023-05-05T20:02:42.112Z,1.23
2023-05-05T20:05:08.990Z,1.10
2023-05-05T20:07:35.562Z,1.23
2023-05-05T20:10:02.098Z,1.10
2023-05-05T20:12:28.557Z,0.90
2023-05-05T20:14:55.043Z,1.20
2023-05-05T20:17:21.695Z,1.13
2023-05-05T20:19:48.161Z,1.00
2023-05-05T20:22:14.668Z,1.10
2023-05-05T20:24:41.817Z,1.00
2023-05-05T20:27:08.616Z,1.10
2023-05-05T20:29:35.109Z,1.10
2023-05-05T20:32:01.658Z,0.80
2023-05-05T20:34:28.247Z,1.10
2023-05-05T20:36:54.790Z,1.13
2023-05-05T20:39:21.298Z,0.90
2023-05-05T20:41:47.856Z,1.17
2023-05-05T20:44:14.344Z,0.90
2023-05-05T20:46:40.912Z,0.90
2023-05-05T20:49:07.436Z,0.90
2023-05-05T20:51:35.133Z,0.90
2023-05-05T20:54:02.421Z,1.02
2023-05-05T20:56:28.940Z,1.17
2023-05-05T20:58:56.695Z,1.40
2023-05-05T21:01:23.292Z,1.73
2023-05-05T21:03:49.939Z,1.48
2023-05-05T21:06:17.328Z,1.02
2023-05-05T21:08:43.830Z,1.10
2023-05-05T21:11:10.377Z,0.93
2023-05-05T21:13:36.925Z,1.10
2023-05-05T21:16:03.388Z,1.10
2023-05-05T21:18:29.924Z,1.15
2023-05-05T21:20:56.413Z,1.10
2023-05-05T21:23:22.894Z,1.30
2023-05-05T21:25:49.563Z,1.60
2023-05-05T21:28:16.063Z,2.10
2023-05-05T21:30:42.704Z,2.85
2023-05-05T21:33:09.333Z,2.88
2023-05-05T21:35:35.830Z,1.80
2023-05-05T21:38:02.441Z,1.80
2023-05-05T21:40:28.913Z,2.00
2023-05-05T21:42:55.544Z,1.98
2023-05-05T21:45:22.120Z,1.95
2023-05-05T21:47:48.590Z,2.10
2023-05-05T21:50:15.104Z,2.10
2023-05-05T21:52:41.574Z,2.25
2023-05-05T21:55:10.549Z,2.03
2023-05-05T21:57:37.050Z,2.28
2023-05-05T22:00:05.571Z,2.40
2023-05-05T22:02:38.913Z,2.40
2023-05-05T22:05:05.686Z,2.60
2023-05-05T22:07:33.111Z,2.83
2023-05-05T22:12:25.891Z,2.90
2023-05-05T22:14:52.534Z,3.42
2023-05-05T22:17:19.062Z,3.45
2023-05-05T22:19:45.454Z,3.30
2023-05-05T22:22:11.944Z,3.45
2023-05-05T22:24:38.363Z,3.60
2023-05-05T22:27:04.763Z,3.60
2023-05-05T22:29:31.316Z,3.38
2023-05-05T22:31:57.916Z,3.30
2023-05-05T22:34:25.706Z,3.38
2023-05-05T22:36:52.182Z,3.20
2023-05-05T22:39:18.773Z,3.72
2023-05-05T22:41:45.288Z,3.13
2023-05-05T22:44:11.811Z,3.25
2023-05-05T22:46:38.267Z,2.85
2023-05-05T22:49:04.779Z,3.42
2023-05-05T22:51:31.733Z,3.10
2023-05-05T22:53:58.326Z,2.92
2023-05-05T22:56:24.879Z,2.72
2023-05-05T22:58:51.321Z,3.40
2023-05-05T23:01:17.870Z,3.60
2023-05-05T23:03:44.320Z,3.15
2023-05-05T23:06:10.720Z,3.25
2023-05-05T23:08:37.190Z,3.10
2023-05-05T23:11:03.742Z,3.42
2023-05-05T23:13:30.503Z,3.08
2023-05-05T23:15:56.948Z,2.92
2023-05-05T23:18:23.369Z,2.65
2023-05-05T23:20:49.832Z,3.75
2023-05-05T23:23:16.430Z,2.78
2023-05-05T23:25:42.972Z,4.13
2023-05-05T23:28:10.040Z,3.60
2023-05-05T23:30:36.673Z,3.58
2023-05-05T23:33:03.443Z,2.50
2023-05-05T23:35:29.997Z,3.55
2023-05-05T23:37:56.456Z,3.40
2023-05-05T23:40:22.950Z,3.80
2023-05-05T23:42:49.348Z,3.40
2023-05-05T23:45:18.066Z,3.25
2023-05-05T23:47:45.702Z,3.75
2023-05-05T23:50:12.152Z,3.70
2023-05-05T23:52:38.712Z,3.90
2023-05-05T23:55:05.999Z,3.63
2023-05-05T23:57:32.475Z,3.60
2023-05-05T23:59:58.961Z,3.22
